[ [{"id":"current","city":"Tucson","state":"AZ","station":"KTUS","time":1493052780,"time_local":"2017-04-24T09:53:00-0700","timezone_offset":"-7","current_temp":"85","current_temp_c":"29","dew_point":"22","dew_point_c":"-6","relative_humidity":"10","wind_speed":"10","wind_deg":"200","wind_dir":"SSW","wind_gust":"18","barometer":"29.88","weather":"","conditions":"Clear","icon":1,"text_icon":"clear","ceiling":"Unl","visibility":"10","heat_index":"85","heat_index_c":"29","wind_chill":"85","wind_chill_c":"29","feels_like":"85","feels_like_c":"29","snow_depth":"","high_temp_6hr":"78","high_temp":"98","low_temp_6hr":"65","low_temp":"61","precip_3hr":"","precip_6hr":"","precip":"","coded_weather":"NSW","enhanced_weather":"","report_text":"KTUS 241653Z 20009G16KT 10SM CLR 29/M06 A2988 RMK AO2 SLP069 T02941056 ","daynight":"D","temp_trend":"HIGHER","wind_low":"10","wind_high":"18","update":"2017-04-24T16:53:00+0000","image":"http://bloximages.chicago2.vip.townnews.com/tucson.com/content/tncms/live/components/lee_core_2/resources/images/weather-icons/1.png?_dc=1450868986","radar_map":"http://bloximages.chicago2.vip.townnews.com/tucson.com/shared-content/art/townnews-weather/images/southwest_loop.gif?_dc=1493053805","radar_map_us":"http://bloximages.chicago2.vip.townnews.com/tucson.com/shared-content/art/townnews-weather/images/usa_loop.gif?_dc=1493053804"}] ]